createdAt,value
2019-03-08T00:00:59.415Z,56.70
2019-03-08T00:03:02.436Z,56.60
2019-03-08T00:05:05.350Z,56.60
2019-03-08T00:07:09.073Z,56.70
2019-03-08T00:09:12.073Z,56.70
2019-03-08T00:11:15.428Z,56.70
2019-03-08T00:13:19.443Z,56.80
2019-03-08T00:15:22.606Z,56.70
2019-03-08T00:17:25.483Z,56.80
2019-03-08T00:19:28.364Z,56.80
2019-03-08T00:21:32.055Z,56.80
2019-03-08T00:23:34.963Z,56.80
2019-03-08T00:25:37.918Z,56.80
2019-03-08T00:27:41.009Z,56.90
2019-03-08T00:29:45.162Z,57.60
2019-03-08T00:31:48.637Z,57.00
2019-03-08T00:33:52.307Z,57.50
2019-03-08T00:35:55.183Z,57.00
2019-03-08T00:37:58.202Z,56.90
2019-03-08T00:40:02.494Z,57.00
2019-03-08T00:42:05.365Z,57.00
2019-03-08T00:44:09.755Z,57.00
2019-03-08T00:46:12.659Z,56.90
2019-03-08T00:48:15.549Z,56.90
2019-03-08T00:50:18.532Z,56.90
2019-03-08T00:52:21.514Z,56.90
2019-03-08T00:54:24.507Z,56.90
2019-03-08T00:56:27.460Z,56.80
2019-03-08T00:58:30.362Z,56.80
2019-03-08T01:00:33.240Z,56.70
2019-03-08T01:02:36.924Z,56.40
2019-03-08T01:04:39.836Z,56.70
2019-03-08T01:06:42.807Z,56.60
2019-03-08T01:08:46.634Z,56.60
2019-03-08T01:10:50.613Z,56.50
2019-03-08T01:12:53.488Z,56.50
2019-03-08T01:14:56.404Z,56.50
2019-03-08T01:17:00.656Z,56.40
2019-03-08T01:19:03.702Z,56.40
2019-03-08T01:21:07.342Z,56.30
2019-03-08T01:23:10.483Z,56.20
2019-03-08T01:25:14.112Z,56.10
2019-03-08T01:27:16.996Z,56.10
2019-03-08T01:29:19.919Z,56.00
2019-03-08T01:31:22.817Z,56.00
2019-03-08T01:33:25.693Z,56.00
2019-03-08T01:35:28.709Z,56.00
2019-03-08T01:37:31.583Z,55.90
2019-03-08T01:39:34.469Z,55.80
2019-03-08T01:41:37.440Z,55.80
2019-03-08T01:43:41.076Z,55.70
2019-03-08T01:45:44.768Z,56.30
2019-03-08T01:47:47.693Z,55.70
2019-03-08T01:49:50.568Z,55.60
2019-03-08T01:51:53.681Z,55.50
2019-03-08T01:53:57.372Z,55.50
2019-03-08T01:56:00.361Z,55.40
2019-03-08T01:58:04.811Z,55.50
2019-03-08T02:00:10.754Z,55.30
2019-03-08T02:02:13.344Z,55.30
2019-03-08T02:04:16.235Z,55.30
2019-03-08T02:06:19.155Z,55.20
2019-03-08T02:08:22.051Z,55.20
2019-03-08T02:10:25.703Z,55.20
2019-03-08T02:12:29.329Z,55.20
2019-03-08T02:14:32.980Z,55.10
2019-03-08T02:16:35.871Z,55.10
2019-03-08T02:18:38.890Z,55.10
2019-03-08T02:20:43.275Z,54.90
2019-03-08T02:22:46.165Z,54.90
2019-03-08T02:24:49.089Z,55.00
2019-03-08T02:26:52.760Z,54.80
2019-03-08T02:28:55.875Z,54.80
2019-03-08T02:30:59.550Z,54.80
2019-03-08T02:33:02.456Z,54.80
2019-03-08T02:35:06.132Z,54.80
2019-03-08T02:37:09.138Z,54.80
2019-03-08T02:39:12.791Z,54.90
2019-03-08T02:41:16.640Z,54.70
2019-03-08T02:43:20.314Z,54.90
2019-03-08T02:45:23.200Z,54.80
2019-03-08T02:47:27.567Z,54.90
2019-03-08T02:49:30.496Z,54.80
2019-03-08T02:51:34.148Z,54.90
2019-03-08T02:53:37.098Z,54.90
2019-03-08T02:55:40.879Z,54.90
2019-03-08T02:57:44.548Z,54.90
2019-03-08T02:59:47.996Z,54.90
2019-03-08T03:01:50.977Z,54.90
2019-03-08T03:03:54.621Z,54.90
2019-03-08T03:05:57.509Z,54.90
2019-03-08T03:08:00.511Z,55.00
2019-03-08T03:10:05.759Z,55.10
2019-03-08T03:12:08.743Z,55.10
2019-03-08T03:14:12.562Z,55.20
2019-03-08T03:16:16.204Z,55.30
2019-03-08T03:18:19.099Z,55.20
2019-03-08T03:20:21.997Z,55.20
2019-03-08T03:22:24.876Z,55.30
2019-03-08T03:24:27.760Z,55.40
2019-03-08T03:26:31.063Z,55.40
2019-03-08T03:28:35.358Z,55.60
2019-03-08T03:30:38.236Z,55.50
2019-03-08T03:32:41.424Z,55.50
2019-03-08T03:34:44.308Z,55.50
2019-03-08T03:36:47.200Z,55.50
2019-03-08T03:38:51.204Z,55.50
2019-03-08T03:40:54.960Z,55.40
2019-03-08T03:42:58.946Z,55.30
2019-03-08T03:45:01.860Z,55.30
2019-03-08T03:47:04.789Z,55.30
2019-03-08T03:49:07.676Z,55.20
2019-03-08T03:51:11.341Z,55.30
2019-03-08T03:53:14.500Z,55.20
2019-03-08T03:55:17.414Z,55.20
2019-03-08T03:57:20.612Z,55.10
2019-03-08T03:59:24.265Z,55.00
2019-03-08T04:01:27.136Z,55.00
2019-03-08T04:03:30.038Z,54.90
2019-03-08T04:05:33.724Z,54.90
2019-03-08T04:07:37.607Z,54.90
2019-03-08T04:09:40.565Z,54.90
2019-03-08T04:11:44.215Z,54.40
2019-03-08T04:13:47.877Z,54.70
2019-03-08T04:15:51.533Z,54.80
2019-03-08T04:17:55.043Z,54.70
2019-03-08T04:19:58.025Z,54.70
2019-03-08T04:22:00.928Z,54.60
2019-03-08T04:24:04.580Z,54.70
2019-03-08T04:26:07.794Z,54.60
2019-03-08T04:28:10.781Z,54.60
2019-03-08T04:30:15.185Z,54.60
2019-03-08T04:32:18.071Z,54.50
2019-03-08T04:34:21.979Z,54.60
2019-03-08T04:36:25.093Z,54.50
2019-03-08T04:38:28.768Z,54.60
2019-03-08T04:40:32.878Z,55.20
2019-03-08T04:42:35.799Z,54.50
2019-03-08T04:44:38.696Z,54.60
2019-03-08T04:46:41.955Z,54.60
2019-03-08T04:48:45.615Z,54.60
2019-03-08T04:50:48.534Z,54.50
2019-03-08T04:52:52.440Z,54.40
2019-03-08T04:54:56.088Z,54.30
2019-03-08T04:56:58.975Z,54.30
2019-03-08T04:59:02.093Z,54.20
2019-03-08T05:01:05.751Z,54.20
2019-03-08T05:03:08.764Z,54.20
2019-03-08T05:05:13.308Z,54.10
2019-03-08T05:07:17.276Z,54.10
2019-03-08T05:09:20.200Z,54.00
2019-03-08T05:11:23.836Z,53.90
2019-03-08T05:13:26.749Z,53.90
2019-03-08T05:15:30.757Z,53.90
2019-03-08T05:17:34.428Z,53.90
2019-03-08T05:19:37.334Z,53.80
2019-03-08T05:21:41.144Z,54.40
2019-03-08T05:23:45.420Z,53.80
2019-03-08T05:25:48.336Z,53.80
2019-03-08T05:27:52.352Z,53.80
2019-03-08T05:29:56.050Z,53.90
2019-03-08T05:31:59.707Z,54.50
2019-03-08T05:34:03.484Z,53.80
2019-03-08T05:36:06.386Z,53.90
2019-03-08T05:38:09.275Z,53.90
2019-03-08T05:40:12.288Z,53.90
2019-03-08T05:42:15.963Z,54.50
2019-03-08T05:44:18.897Z,53.90
2019-03-08T05:46:21.877Z,53.90
2019-03-08T05:48:26.493Z,54.00
2019-03-08T05:50:29.967Z,54.00
2019-03-08T05:52:32.928Z,54.00
2019-03-08T05:54:35.799Z,54.00
2019-03-08T05:56:38.811Z,54.00
2019-03-08T05:58:42.132Z,54.00
2019-03-08T06:00:45.967Z,54.00
2019-03-08T06:02:49.035Z,53.90
2019-03-08T06:04:51.927Z,53.90
2019-03-08T06:06:54.819Z,53.90
2019-03-08T06:08:57.728Z,53.90
2019-03-08T06:11:00.624Z,53.90
2019-03-08T06:13:04.327Z,54.00
2019-03-08T06:15:07.607Z,53.90
2019-03-08T06:17:11.303Z,53.90
2019-03-08T06:19:14.993Z,53.90
2019-03-08T06:21:17.916Z,53.90
2019-03-08T06:23:21.593Z,53.90
2019-03-08T06:25:25.259Z,53.80
2019-03-08T06:27:28.210Z,53.80
2019-03-08T06:29:31.100Z,53.80
2019-03-08T06:31:33.996Z,53.80
2019-03-08T06:33:37.388Z,53.80
2019-03-08T06:35:40.290Z,53.80
2019-03-08T06:37:43.197Z,53.90
2019-03-08T06:39:47.118Z,54.60
2019-03-08T06:41:50.176Z,53.90
2019-03-08T06:43:53.932Z,54.00
2019-03-08T06:45:56.859Z,53.90
2019-03-08T06:48:00.524Z,54.60
2019-03-08T06:50:03.451Z,54.00
2019-03-08T06:52:06.760Z,54.00
2019-03-08T06:54:10.455Z,54.00
2019-03-08T06:56:14.580Z,53.90
2019-03-08T06:58:17.485Z,53.90
2019-03-08T07:00:31.049Z,53.80
2019-03-08T07:02:33.930Z,53.80
2019-03-08T07:04:38.881Z,53.80
2019-03-08T07:06:42.919Z,53.70
2019-03-08T07:08:45.817Z,53.70
2019-03-08T07:10:48.761Z,53.70
2019-03-08T07:12:52.412Z,53.70
2019-03-08T07:14:56.145Z,53.80
2019-03-08T07:17:00.562Z,53.70
2019-03-08T07:19:04.252Z,53.80
2019-03-08T07:21:08.516Z,53.80
2019-03-08T07:23:13.295Z,53.70
2019-03-08T07:25:23.379Z,53.80
2019-03-08T07:27:26.757Z,53.70
2019-03-08T07:29:31.295Z,53.70
2019-03-08T07:31:38.011Z,53.70
2019-03-08T07:33:52.953Z,53.70
2019-03-08T07:36:03.515Z,53.70
2019-03-08T07:38:08.888Z,53.70
2019-03-08T07:40:15.773Z,53.60
2019-03-08T07:42:33.004Z,53.70
2019-03-08T07:44:37.126Z,53.70
2019-03-08T07:46:45.776Z,53.60
2019-03-08T07:49:03.557Z,53.60
2019-03-08T07:51:08.103Z,53.50
2019-03-08T07:53:12.624Z,53.50
2019-03-08T07:55:21.489Z,53.50
2019-03-08T07:57:30.214Z,53.50
2019-03-08T07:59:53.563Z,53.50
2019-03-08T08:01:52.731Z,53.50
2019-03-08T08:03:55.612Z,53.50
2019-03-08T08:06:02.068Z,53.60
2019-03-08T08:08:05.551Z,53.60
2019-03-08T08:10:13.262Z,53.60
2019-03-08T08:12:17.795Z,53.60
2019-03-08T08:14:21.557Z,53.70
2019-03-08T08:16:27.394Z,53.70
2019-03-08T08:18:42.099Z,53.70
2019-03-08T08:21:01.125Z,53.70
2019-03-08T08:23:04.914Z,53.70
2019-03-08T08:25:08.306Z,53.60
2019-03-08T08:27:12.789Z,53.80
2019-03-08T08:29:17.162Z,53.70
2019-03-08T08:31:25.257Z,53.90
2019-03-08T08:33:44.931Z,53.80
2019-03-08T08:35:48.591Z,53.80
2019-03-08T08:37:57.207Z,53.60
2019-03-08T08:40:04.310Z,53.60
2019-03-08T08:42:10.840Z,53.80
2019-03-08T08:44:13.758Z,53.60
2019-03-08T08:46:19.596Z,53.70
2019-03-08T08:48:26.743Z,55.00
2019-03-08T08:50:35.761Z,55.00
2019-03-08T08:52:38.141Z,55.50
2019-03-08T08:54:44.793Z,55.30
2019-03-08T08:56:51.729Z,55.00
2019-03-08T08:59:00.387Z,54.70
2019-03-08T09:01:18.947Z,54.70
2019-03-08T09:03:37.104Z,54.60
2019-03-08T09:05:39.979Z,54.40
2019-03-08T09:07:42.859Z,54.30
2019-03-08T09:10:00.563Z,54.20
2019-03-08T09:12:03.952Z,54.20
2019-03-08T09:14:06.827Z,54.30
2019-03-08T09:16:12.799Z,54.20
2019-03-08T09:18:31.396Z,54.30
2019-03-08T09:20:40.708Z,54.20
2019-03-08T09:22:44.380Z,54.20
2019-03-08T09:24:47.270Z,54.10
2019-03-08T09:26:56.033Z,54.20
2019-03-08T09:29:13.828Z,54.30
2019-03-08T09:31:19.369Z,54.40
2019-03-08T09:33:23.976Z,54.80
2019-03-08T09:35:37.731Z,54.80
2019-03-08T09:37:41.408Z,55.50
2019-03-08T09:39:50.072Z,55.50
2019-03-08T09:41:56.303Z,56.20
2019-03-08T09:44:00.412Z,57.10
2019-03-08T09:46:05.107Z,56.50
2019-03-08T09:48:13.855Z,56.80
2019-03-08T09:50:18.272Z,56.90
2019-03-08T09:52:22.790Z,57.10
2019-03-08T09:54:28.408Z,57.20
2019-03-08T09:56:32.932Z,57.40
2019-03-08T09:58:50.815Z,57.70
2019-03-08T10:00:58.202Z,58.00
2019-03-08T10:03:11.756Z,58.00
2019-03-08T10:05:32.529Z,58.20
2019-03-08T10:07:37.124Z,58.30
2019-03-08T10:09:42.481Z,58.80
2019-03-08T10:11:50.004Z,59.10
2019-03-08T10:13:55.296Z,59.00
2019-03-08T10:16:01.836Z,59.20
2019-03-08T10:18:07.301Z,59.30
2019-03-08T10:20:13.409Z,59.40
2019-03-08T10:22:32.113Z,59.40
2019-03-08T10:24:38.359Z,59.50
2019-03-08T10:26:51.240Z,59.50
2019-03-08T10:29:09.976Z,59.60
2019-03-08T10:31:27.731Z,59.70
2019-03-08T10:33:36.437Z,59.90
2019-03-08T10:35:43.760Z,59.90
2019-03-08T10:37:48.977Z,60.30
2019-03-08T10:39:57.510Z,60.30
2019-03-08T10:42:16.240Z,60.40
2019-03-08T10:44:19.128Z,60.60
2019-03-08T10:46:40.436Z,60.60
2019-03-08T10:48:43.920Z,60.70
2019-03-08T10:51:03.561Z,60.70
2019-03-08T10:53:06.960Z,60.80
2019-03-08T10:55:26.645Z,60.80
2019-03-08T10:57:36.128Z,60.80
2019-03-08T10:59:39.782Z,60.80
2019-03-08T11:01:48.228Z,60.80
2019-03-08T11:03:51.967Z,60.90
2019-03-08T11:05:56.051Z,60.90
2019-03-08T11:08:04.228Z,61.60
2019-03-08T11:10:09.560Z,60.70
2019-03-08T11:12:18.196Z,60.80
2019-03-08T11:14:26.828Z,61.00
2019-03-08T11:16:44.786Z,61.30
2019-03-08T11:19:08.655Z,61.60
2019-03-08T11:21:05.554Z,61.70
2019-03-08T11:23:14.096Z,61.70
2019-03-08T11:25:24.502Z,62.40
2019-03-08T11:27:33.972Z,62.30
2019-03-08T11:29:41.560Z,62.60
2019-03-08T11:31:59.503Z,62.80
2019-03-08T11:34:08.861Z,63.30
2019-03-08T11:36:30.252Z,62.90
2019-03-08T11:38:36.728Z,62.90
2019-03-08T11:40:47.972Z,63.10
2019-03-08T11:42:57.759Z,63.00
2019-03-08T11:45:05.464Z,63.20
2019-03-08T11:47:11.950Z,63.30
2019-03-08T11:49:21.371Z,63.30
2019-03-08T11:51:29.115Z,63.30
2019-03-08T11:53:55.887Z,63.30
2019-03-08T11:56:11.004Z,63.20
2019-03-08T11:58:29.755Z,63.10
2019-03-08T12:00:38.334Z,63.20
2019-03-08T12:02:46.914Z,63.00
2019-03-08T12:04:55.528Z,63.20
2019-03-08T12:06:58.412Z,63.10
2019-03-08T12:09:16.202Z,63.20
2019-03-08T12:11:36.636Z,63.60
2019-03-08T12:13:46.023Z,64.10
2019-03-08T12:16:00.278Z,63.30
2019-03-08T12:18:08.951Z,63.30
2019-03-08T12:20:15.360Z,63.30
2019-03-08T12:22:20.016Z,63.30
2019-03-08T12:24:38.975Z,63.40
2019-03-08T12:26:56.310Z,63.90
2019-03-08T12:29:04.969Z,63.10
2019-03-08T12:31:13.832Z,63.10
2019-03-08T12:33:22.447Z,63.20
2019-03-08T12:35:46.949Z,63.10
2019-03-08T12:37:50.879Z,63.10
2019-03-08T12:40:08.643Z,62.90
2019-03-08T12:42:17.215Z,63.00
2019-03-08T12:44:24.715Z,62.70
2019-03-08T12:46:48.417Z,62.60
2019-03-08T12:49:06.170Z,62.50
2019-03-08T12:51:20.925Z,62.40
2019-03-08T12:53:26.795Z,62.30
2019-03-08T12:55:36.016Z,62.00
2019-03-08T12:57:45.361Z,62.60
2019-03-08T12:59:50.988Z,61.80
2019-03-08T13:02:00.259Z,61.60
2019-03-08T13:04:03.672Z,61.60
2019-03-08T13:06:24.124Z,61.50
2019-03-08T13:08:39.598Z,60.90
2019-03-08T13:13:14.527Z,60.90
2019-03-08T13:23:13.505Z,58.20
2019-03-08T13:33:13.679Z,58.10
2019-03-08T13:35:31.512Z,57.60
2019-03-08T13:45:44.559Z,57.50
2019-03-08T13:48:03.929Z,58.50
2019-03-08T13:50:11.780Z,58.40
2019-03-08T13:55:37.542Z,58.90
2019-03-08T14:03:12.338Z,58.20
2019-03-08T14:13:11.591Z,57.50
2019-03-08T14:15:19.412Z,56.50
2019-03-08T14:23:14.318Z,55.70
2019-03-08T14:27:45.899Z,55.60
2019-03-08T14:29:48.804Z,54.20
2019-03-08T14:31:51.955Z,54.60
2019-03-08T14:33:55.043Z,54.80
2019-03-08T14:35:58.015Z,55.00
2019-03-08T14:38:00.894Z,55.00
2019-03-08T14:40:03.775Z,54.90
2019-03-08T14:42:06.690Z,55.00
2019-03-08T14:44:12.108Z,55.00
2019-03-08T14:46:30.672Z,54.90
2019-03-08T14:48:33.574Z,54.90
2019-03-08T14:50:37.009Z,54.80
2019-03-08T14:52:39.344Z,54.80
2019-03-08T14:54:46.307Z,54.90
2019-03-08T14:56:46.245Z,55.10
2019-03-08T14:58:49.246Z,55.10
2019-03-08T15:00:52.640Z,55.10
2019-03-08T15:02:56.280Z,55.20
2019-03-08T15:04:59.175Z,55.10
2019-03-08T15:07:04.592Z,55.10
2019-03-08T15:09:05.849Z,54.80
2019-03-08T15:11:08.740Z,54.80
2019-03-08T15:13:11.752Z,54.70
2019-03-08T15:15:15.827Z,54.70
2019-03-08T15:17:19.294Z,54.60
2019-03-08T15:19:22.253Z,54.70
2019-03-08T15:21:25.895Z,54.50
2019-03-08T15:23:28.787Z,54.50
2019-03-08T15:25:31.921Z,54.40
2019-03-08T15:27:35.556Z,54.20
2019-03-08T15:29:38.583Z,54.10
2019-03-08T15:31:43.367Z,54.20
2019-03-08T15:33:46.244Z,54.10
2019-03-08T15:35:49.541Z,54.00
2019-03-08T15:37:52.444Z,53.90
2019-03-08T15:39:55.329Z,53.80
2019-03-08T15:41:58.657Z,53.60
2019-03-08T15:44:01.193Z,53.40
2019-03-08T15:46:04.071Z,53.20
2019-03-08T15:48:07.007Z,52.90
2019-03-08T15:50:18.672Z,52.90
2019-03-08T15:52:21.596Z,52.80
2019-03-08T15:54:24.480Z,52.60
2019-03-08T15:56:27.385Z,52.60
2019-03-08T15:58:30.273Z,52.50
2019-03-08T16:00:33.156Z,52.40
2019-03-08T16:02:36.852Z,52.40
2019-03-08T16:04:39.832Z,52.30
2019-03-08T16:06:44.041Z,52.20
2019-03-08T16:08:46.822Z,52.30
2019-03-08T16:10:49.731Z,52.20
2019-03-08T16:12:53.373Z,52.30
2019-03-08T16:14:56.410Z,52.10
2019-03-08T16:17:00.094Z,52.30
2019-03-08T16:19:02.967Z,52.30
2019-03-08T16:21:05.977Z,52.30
2019-03-08T16:23:09.624Z,52.50
2019-03-08T16:25:12.504Z,52.40
2019-03-08T16:27:15.516Z,52.50
2019-03-08T16:29:20.732Z,53.10
2019-03-08T16:31:30.415Z,53.10
2019-03-08T16:33:37.016Z,53.50
2019-03-08T16:35:42.492Z,53.50
2019-03-08T16:37:47.228Z,53.50
2019-03-08T16:39:52.029Z,53.50
2019-03-08T16:42:00.495Z,53.50
2019-03-08T16:44:19.679Z,53.80
2019-03-08T16:46:24.135Z,53.80
2019-03-08T16:48:27.016Z,53.90
2019-03-08T16:50:30.568Z,54.00
2019-03-08T16:52:35.955Z,54.00
2019-03-08T16:54:49.515Z,53.80
2019-03-08T16:56:58.950Z,53.60
2019-03-08T16:59:20.435Z,53.50
2019-03-08T17:01:24.924Z,53.50
2019-03-08T17:03:29.244Z,53.50
2019-03-08T17:05:36.664Z,53.50
2019-03-08T17:07:55.399Z,53.50
2019-03-08T17:10:01.146Z,53.50
2019-03-08T17:12:06.515Z,53.50
2019-03-08T17:14:10.173Z,53.60
2019-03-08T17:16:18.701Z,53.50
2019-03-08T17:18:22.485Z,53.60
2019-03-08T17:20:27.320Z,53.60
2019-03-08T17:22:31.764Z,53.70
2019-03-08T17:24:38.547Z,53.80
2019-03-08T17:26:44.536Z,53.90
2019-03-08T17:29:08.138Z,53.90
2019-03-08T17:31:17.015Z,53.80
2019-03-08T17:33:19.937Z,53.80
2019-03-08T17:35:35.265Z,53.80
2019-03-08T17:37:46.700Z,53.80
2019-03-08T17:39:51.479Z,54.00
2019-03-08T17:42:00.204Z,54.20
2019-03-08T17:44:08.851Z,54.40
2019-03-08T17:46:26.722Z,54.40
2019-03-08T17:48:32.999Z,54.60
2019-03-08T17:50:36.255Z,54.60
2019-03-08T17:52:44.689Z,54.60
2019-03-08T17:55:00.325Z,54.60
2019-03-08T17:57:17.952Z,54.60
2019-03-08T17:59:27.381Z,54.60
2019-03-08T18:01:33.117Z,54.60
2019-03-08T18:03:39.268Z,54.60
2019-03-08T18:05:46.680Z,54.70
2019-03-08T18:07:52.071Z,54.70
2019-03-08T18:10:02.310Z,54.80
2019-03-08T18:12:12.399Z,55.00
2019-03-08T18:14:18.753Z,54.80
2019-03-08T18:16:37.728Z,54.90
2019-03-08T18:18:56.409Z,54.90
2019-03-08T18:21:01.975Z,54.90
2019-03-08T18:23:08.308Z,55.00
2019-03-08T18:25:13.136Z,55.00
2019-03-08T18:27:21.851Z,55.10
2019-03-08T18:29:25.394Z,55.20
2019-03-08T18:31:38.198Z,55.20
2019-03-08T18:33:41.080Z,55.30
2019-03-08T18:36:04.540Z,55.30
2019-03-08T18:38:14.993Z,55.30
2019-03-08T18:40:18.624Z,55.30
2019-03-08T18:42:28.292Z,55.20
2019-03-08T18:44:45.031Z,55.30
2019-03-08T18:46:48.688Z,55.40
2019-03-08T18:48:52.287Z,55.30
2019-03-08T18:51:10.827Z,54.90
2019-03-08T18:53:14.618Z,55.40
2019-03-08T18:55:28.284Z,55.40
2019-03-08T18:57:37.464Z,55.50
2019-03-08T18:59:42.856Z,55.50
2019-03-08T19:01:52.804Z,55.50
2019-03-08T19:03:55.683Z,55.50
2019-03-08T19:06:14.294Z,55.50
2019-03-08T19:08:35.197Z,55.50
2019-03-08T19:10:39.912Z,55.40
2019-03-08T19:12:46.890Z,55.30
2019-03-08T19:14:55.476Z,55.30
2019-03-08T19:17:15.866Z,55.40
2019-03-08T19:19:34.396Z,55.30
2019-03-08T19:21:39.120Z,55.30
2019-03-08T19:23:45.628Z,55.40
2019-03-08T19:25:48.536Z,55.30
2019-03-08T19:27:52.660Z,55.40
2019-03-08T19:29:59.067Z,55.40
2019-03-08T19:32:06.776Z,55.30
2019-03-08T19:34:21.416Z,55.40
2019-03-08T19:36:26.965Z,55.30
2019-03-08T19:38:29.851Z,55.30
2019-03-08T19:40:48.072Z,55.20
2019-03-08T19:42:52.642Z,55.10
2019-03-08T19:45:01.102Z,55.00
2019-03-08T19:47:25.843Z,54.90
2019-03-08T19:49:32.440Z,54.80
2019-03-08T19:51:41.102Z,54.60
2019-03-08T19:53:45.628Z,54.50
2019-03-08T19:56:04.227Z,54.40
2019-03-08T19:58:12.793Z,54.40
2019-03-08T20:00:16.638Z,54.20
2019-03-08T20:02:20.396Z,54.10
2019-03-08T20:04:38.405Z,54.10
2019-03-08T20:06:44.975Z,53.60
2019-03-08T20:09:04.462Z,53.30
2019-03-08T20:11:11.086Z,53.30
2019-03-08T20:13:34.748Z,53.00
2019-03-08T20:15:39.425Z,52.80
2019-03-08T20:17:44.840Z,52.60
2019-03-08T20:20:07.895Z,52.30
2019-03-08T20:22:15.243Z,52.00
2019-03-08T20:24:21.726Z,51.90
2019-03-08T20:26:26.330Z,51.60
2019-03-08T20:28:34.871Z,51.60
2019-03-08T20:30:40.555Z,51.40
2019-03-08T20:32:44.317Z,51.30
2019-03-08T20:34:47.960Z,51.10
2019-03-08T20:37:10.641Z,51.00
2019-03-08T20:39:19.096Z,50.90
2019-03-08T20:41:25.989Z,50.70
2019-03-08T20:43:32.420Z,50.70
2019-03-08T20:45:37.016Z,50.60
2019-03-08T20:47:40.241Z,50.50
2019-03-08T20:49:43.196Z,50.40
2019-03-08T20:51:47.537Z,50.30
2019-03-08T20:53:50.439Z,50.30
2019-03-08T20:55:54.301Z,50.20
2019-03-08T20:57:57.370Z,50.20
2019-03-08T21:00:00.350Z,50.10
2019-03-08T21:02:03.942Z,50.00
2019-03-08T21:04:06.833Z,50.00
2019-03-08T21:06:11.212Z,50.00
2019-03-08T21:08:14.095Z,49.90
2019-03-08T21:10:17.437Z,50.00
2019-03-08T21:12:21.636Z,49.50
2019-03-08T21:14:24.522Z,49.90
2019-03-08T21:16:28.315Z,50.50
2019-03-08T21:18:31.779Z,49.80
2019-03-08T21:20:34.675Z,49.80
2019-03-08T21:22:39.236Z,49.80
2019-03-08T21:24:42.879Z,49.70
2019-03-08T21:26:45.904Z,49.70
2019-03-08T21:28:50.029Z,49.70
2019-03-08T21:30:53.735Z,49.60
2019-03-08T21:32:57.361Z,49.50
2019-03-08T21:35:00.310Z,49.50
2019-03-08T21:37:03.160Z,49.40
2019-03-08T21:39:06.052Z,49.40
2019-03-08T21:41:09.848Z,49.40
2019-03-08T21:43:13.506Z,48.80
2019-03-08T21:45:16.464Z,49.20
2019-03-08T21:47:19.820Z,49.20
2019-03-08T21:49:23.484Z,49.20
2019-03-08T21:51:26.442Z,49.10
2019-03-08T21:53:29.421Z,49.10
2019-03-08T21:55:32.311Z,49.10
2019-03-08T21:57:35.804Z,49.10
2019-03-08T21:59:38.871Z,49.00
2019-03-08T22:01:42.572Z,49.00
2019-03-08T22:03:46.620Z,49.00
2019-03-08T22:05:49.536Z,48.90
2019-03-08T22:07:53.368Z,48.90
2019-03-08T22:10:08.066Z,48.90
2019-03-08T22:12:11.508Z,48.90
2019-03-08T22:14:15.388Z,49.50
2019-03-08T22:16:20.102Z,48.80
2019-03-08T22:18:23.184Z,48.80
2019-03-08T22:20:26.540Z,48.60
2019-03-08T22:22:29.809Z,48.70
2019-03-08T22:24:33.947Z,48.80
2019-03-08T22:26:36.836Z,48.80
2019-03-08T22:28:39.733Z,48.80
2019-03-08T22:30:42.648Z,48.80
2019-03-08T22:32:45.632Z,48.80
2019-03-08T22:34:49.323Z,48.80
2019-03-08T22:36:53.008Z,48.80
2019-03-08T22:38:55.928Z,48.70
2019-03-08T22:40:59.613Z,48.60
2019-03-08T22:43:03.454Z,48.60
2019-03-08T22:45:06.340Z,48.50
2019-03-08T22:47:09.652Z,48.50
2019-03-08T22:49:12.863Z,48.50
2019-03-08T22:51:15.738Z,48.40
2019-03-08T22:53:20.149Z,48.30
2019-03-08T22:55:23.059Z,48.20
2019-03-08T22:57:26.736Z,48.30
2019-03-08T22:59:29.727Z,48.20
2019-03-08T23:01:38.794Z,48.30
2019-03-08T23:03:41.798Z,48.20
2019-03-08T23:05:44.683Z,48.20
2019-03-08T23:07:48.413Z,48.20
2019-03-08T23:09:51.291Z,48.20
2019-03-08T23:11:54.239Z,48.20
2019-03-08T23:13:57.163Z,48.10
2019-03-08T23:16:00.818Z,48.20
2019-03-08T23:18:03.703Z,48.10
2019-03-08T23:20:06.621Z,48.10
2019-03-08T23:22:10.363Z,48.10
2019-03-08T23:24:13.253Z,48.10
2019-03-08T23:26:16.191Z,48.10
2019-03-08T23:28:29.751Z,48.10
2019-03-08T23:30:32.648Z,48.00
2019-03-08T23:32:35.597Z,48.00
2019-03-08T23:34:38.435Z,48.00
2019-03-08T23:36:41.373Z,47.90
2019-03-08T23:38:45.744Z,47.90
2019-03-08T23:40:48.636Z,47.90
2019-03-08T23:42:52.162Z,47.90
2019-03-08T23:44:55.831Z,47.90
2019-03-08T23:46:58.837Z,47.80
2019-03-08T23:49:02.480Z,48.50
2019-03-08T23:51:05.392Z,47.80
2019-03-08T23:53:08.314Z,47.80
2019-03-08T23:55:11.296Z,47.80
2019-03-08T23:57:14.967Z,47.80
2019-03-08T23:59:18.620Z,47.80
